sensor_id;sensor_type;location;lat;lon;timestamp;P1;durP1;ratioP1;P2;durP2;ratioP2
11228;SDS011;5671;47.936;8.716;2022-12-10T00:01:42;21.10;;;14.88;;
11228;SDS011;5671;47.936;8.716;2022-12-10T00:04:10;19.80;;;14.13;;
11228;SDS011;5671;47.936;8.716;2022-12-10T00:06:38;21.35;;;14.63;;
11228;SDS011;5671;47.936;8.716;2022-12-10T00:09:07;21.10;;;14.70;;
11228;SDS011;5671;47.936;8.716;2022-12-10T00:11:37;21.42;;;14.43;;
11228;SDS011;5671;47.936;8.716;2022-12-10T00:14:05;21.08;;;14.32;;
11228;SDS011;5671;47.936;8.716;2022-12-10T00:16:33;26.17;;;15.73;;
11228;SDS011;5671;47.936;8.716;2022-12-10T00:19:02;21.90;;;14.27;;
11228;SDS011;5671;47.936;8.716;2022-12-10T00:21:30;24.77;;;15.57;;
11228;SDS011;5671;47.936;8.716;2022-12-10T00:23:58;21.35;;;14.73;;
11228;SDS011;5671;47.936;8.716;2022-12-10T00:26:26;21.80;;;15.07;;
11228;SDS011;5671;47.936;8.716;2022-12-10T00:28:54;21.73;;;15.15;;
11228;SDS011;5671;47.936;8.716;2022-12-10T00:31:23;22.48;;;15.25;;
11228;SDS011;5671;47.936;8.716;2022-12-10T00:33:52;23.20;;;14.95;;
11228;SDS011;5671;47.936;8.716;2022-12-10T00:36:22;23.43;;;15.27;;
11228;SDS011;5671;47.936;8.716;2022-12-10T00:38:56;23.35;;;14.80;;
11228;SDS011;5671;47.936;8.716;2022-12-10T00:41:23;21.20;;;15.30;;
11228;SDS011;5671;47.936;8.716;2022-12-10T00:43:50;23.30;;;15.60;;
11228;SDS011;5671;47.936;8.716;2022-12-10T00:46:17;23.58;;;15.63;;
11228;SDS011;5671;47.936;8.716;2022-12-10T00:48:59;23.13;;;15.70;;
11228;SDS011;5671;47.936;8.716;2022-12-10T00:51:27;24.43;;;15.00;;
11228;SDS011;5671;47.936;8.716;2022-12-10T00:53:57;25.98;;;16.73;;
11228;SDS011;5671;47.936;8.716;2022-12-10T00:56:25;25.63;;;16.02;;
11228;SDS011;5671;47.936;8.716;2022-12-10T00:58:55;21.83;;;15.02;;
11228;SDS011;5671;47.936;8.716;2022-12-10T01:01:27;22.38;;;15.27;;
11228;SDS011;5671;47.936;8.716;2022-12-10T01:03:57;22.97;;;14.77;;
11228;SDS011;5671;47.936;8.716;2022-12-10T01:06:26;28.42;;;15.35;;
11228;SDS011;5671;47.936;8.716;2022-12-10T01:08:57;22.17;;;16.02;;
11228;SDS011;5671;47.936;8.716;2022-12-10T01:11:28;20.63;;;14.48;;
11228;SDS011;5671;47.936;8.716;2022-12-10T01:13:56;23.98;;;15.93;;
11228;SDS011;5671;47.936;8.716;2022-12-10T01:16:24;22.98;;;14.88;;
11228;SDS011;5671;47.936;8.716;2022-12-10T01:18:52;21.35;;;14.45;;
11228;SDS011;5671;47.936;8.716;2022-12-10T01:21:22;22.58;;;15.43;;
11228;SDS011;5671;47.936;8.716;2022-12-10T01:23:52;20.80;;;15.30;;
11228;SDS011;5671;47.936;8.716;2022-12-10T01:26:21;23.75;;;15.70;;
11228;SDS011;5671;47.936;8.716;2022-12-10T01:28:49;26.92;;;15.27;;
11228;SDS011;5671;47.936;8.716;2022-12-10T01:31:18;19.57;;;15.07;;
11228;SDS011;5671;47.936;8.716;2022-12-10T01:33:46;20.17;;;13.60;;
11228;SDS011;5671;47.936;8.716;2022-12-10T01:36:14;24.50;;;15.33;;
11228;SDS011;5671;47.936;8.716;2022-12-10T01:38:43;23.40;;;16.15;;
11228;SDS011;5671;47.936;8.716;2022-12-10T01:41:14;21.80;;;15.47;;
11228;SDS011;5671;47.936;8.716;2022-12-10T01:46:51;22.63;;;15.80;;
11228;SDS011;5671;47.936;8.716;2022-12-10T01:49:20;21.17;;;14.52;;
11228;SDS011;5671;47.936;8.716;2022-12-10T01:51:50;22.40;;;15.37;;
11228;SDS011;5671;47.936;8.716;2022-12-10T01:54:19;22.38;;;15.02;;
11228;SDS011;5671;47.936;8.716;2022-12-10T01:56:50;23.48;;;15.07;;
11228;SDS011;5671;47.936;8.716;2022-12-10T01:59:23;22.70;;;15.60;;
11228;SDS011;5671;47.936;8.716;2022-12-10T02:01:52;21.48;;;15.35;;
11228;SDS011;5671;47.936;8.716;2022-12-10T02:04:25;21.40;;;15.65;;
11228;SDS011;5671;47.936;8.716;2022-12-10T02:06:58;21.10;;;14.98;;
11228;SDS011;5671;47.936;8.716;2022-12-10T02:09:30;24.63;;;14.70;;
11228;SDS011;5671;47.936;8.716;2022-12-10T02:12:09;22.07;;;14.00;;
11228;SDS011;5671;47.936;8.716;2022-12-10T02:14:41;23.30;;;15.35;;
11228;SDS011;5671;47.936;8.716;2022-12-10T02:17:17;21.20;;;14.03;;
11228;SDS011;5671;47.936;8.716;2022-12-10T02:22:35;18.80;;;14.32;;
11228;SDS011;5671;47.936;8.716;2022-12-10T02:25:05;23.30;;;15.27;;
11228;SDS011;5671;47.936;8.716;2022-12-10T02:27:37;22.27;;;15.33;;
11228;SDS011;5671;47.936;8.716;2022-12-10T02:30:13;20.33;;;15.27;;
11228;SDS011;5671;47.936;8.716;2022-12-10T02:32:41;23.95;;;15.88;;
11228;SDS011;5671;47.936;8.716;2022-12-10T02:35:11;25.25;;;15.70;;
11228;SDS011;5671;47.936;8.716;2022-12-10T02:37:42;25.03;;;15.53;;
11228;SDS011;5671;47.936;8.716;2022-12-10T02:40:19;25.87;;;16.17;;
11228;SDS011;5671;47.936;8.716;2022-12-10T02:42:51;22.10;;;14.97;;
11228;SDS011;5671;47.936;8.716;2022-12-10T02:45:21;23.20;;;16.07;;
11228;SDS011;5671;47.936;8.716;2022-12-10T02:47:49;21.85;;;15.70;;
11228;SDS011;5671;47.936;8.716;2022-12-10T02:50:19;23.37;;;15.97;;
11228;SDS011;5671;47.936;8.716;2022-12-10T02:52:47;22.65;;;15.73;;
11228;SDS011;5671;47.936;8.716;2022-12-10T02:55:14;23.63;;;15.63;;
11228;SDS011;5671;47.936;8.716;2022-12-10T02:57:45;23.05;;;14.63;;
11228;SDS011;5671;47.936;8.716;2022-12-10T03:00:24;21.83;;;15.67;;
11228;SDS011;5671;47.936;8.716;2022-12-10T03:02:55;21.00;;;14.60;;
11228;SDS011;5671;47.936;8.716;2022-12-10T03:05:35;23.58;;;14.68;;
11228;SDS011;5671;47.936;8.716;2022-12-10T03:08:09;22.70;;;15.70;;
11228;SDS011;5671;47.936;8.716;2022-12-10T03:10:40;21.53;;;14.57;;
11228;SDS011;5671;47.936;8.716;2022-12-10T03:13:15;20.87;;;15.30;;
11228;SDS011;5671;47.936;8.716;2022-12-10T03:15:45;24.13;;;15.80;;
11228;SDS011;5671;47.936;8.716;2022-12-10T03:18:14;23.63;;;16.27;;
11228;SDS011;5671;47.936;8.716;2022-12-10T03:20:45;21.42;;;15.85;;
11228;SDS011;5671;47.936;8.716;2022-12-10T03:23:14;21.03;;;14.20;;
11228;SDS011;5671;47.936;8.716;2022-12-10T03:25:43;24.33;;;15.13;;
11228;SDS011;5671;47.936;8.716;2022-12-10T03:28:12;20.60;;;15.53;;
11228;SDS011;5671;47.936;8.716;2022-12-10T03:30:40;26.52;;;16.73;;
11228;SDS011;5671;47.936;8.716;2022-12-10T03:33:10;23.23;;;15.83;;
11228;SDS011;5671;47.936;8.716;2022-12-10T03:35:38;20.67;;;15.73;;
11228;SDS011;5671;47.936;8.716;2022-12-10T03:38:06;23.02;;;16.63;;
11228;SDS011;5671;47.936;8.716;2022-12-10T03:40:33;22.63;;;16.48;;
11228;SDS011;5671;47.936;8.716;2022-12-10T03:43:00;21.67;;;15.73;;
11228;SDS011;5671;47.936;8.716;2022-12-10T03:45:27;21.40;;;15.23;;
11228;SDS011;5671;47.936;8.716;2022-12-10T03:47:54;21.17;;;15.87;;
11228;SDS011;5671;47.936;8.716;2022-12-10T03:50:22;20.90;;;15.63;;
11228;SDS011;5671;47.936;8.716;2022-12-10T03:52:49;23.92;;;16.85;;
11228;SDS011;5671;47.936;8.716;2022-12-10T03:55:16;22.43;;;16.43;;
11228;SDS011;5671;47.936;8.716;2022-12-10T03:57:43;25.67;;;16.48;;
11228;SDS011;5671;47.936;8.716;2022-12-10T04:00:10;23.50;;;16.87;;
11228;SDS011;5671;47.936;8.716;2022-12-10T04:02:38;23.23;;;16.67;;
11228;SDS011;5671;47.936;8.716;2022-12-10T04:05:05;26.98;;;16.52;;
11228;SDS011;5671;47.936;8.716;2022-12-10T04:07:34;24.13;;;16.67;;
11228;SDS011;5671;47.936;8.716;2022-12-10T04:10:02;23.63;;;16.20;;
11228;SDS011;5671;47.936;8.716;2022-12-10T04:12:29;28.77;;;16.83;;
11228;SDS011;5671;47.936;8.716;2022-12-10T04:14:56;26.25;;;16.90;;
11228;SDS011;5671;47.936;8.716;2022-12-10T04:17:40;24.77;;;16.47;;
11228;SDS011;5671;47.936;8.716;2022-12-10T04:20:07;25.60;;;16.63;;
11228;SDS011;5671;47.936;8.716;2022-12-10T04:22:57;26.70;;;17.63;;
11228;SDS011;5671;47.936;8.716;2022-12-10T04:25:41;27.35;;;16.85;;
11228;SDS011;5671;47.936;8.716;2022-12-10T04:28:26;25.90;;;17.87;;
11228;SDS011;5671;47.936;8.716;2022-12-10T04:30:53;27.83;;;17.63;;
11228;SDS011;5671;47.936;8.716;2022-12-10T04:33:19;28.80;;;17.93;;
11228;SDS011;5671;47.936;8.716;2022-12-10T04:35:46;25.23;;;17.63;;
11228;SDS011;5671;47.936;8.716;2022-12-10T04:38:14;24.58;;;16.67;;
11228;SDS011;5671;47.936;8.716;2022-12-10T04:40:41;24.50;;;16.77;;
11228;SDS011;5671;47.936;8.716;2022-12-10T04:43:08;29.43;;;18.27;;
11228;SDS011;5671;47.936;8.716;2022-12-10T04:45:35;25.87;;;18.60;;
11228;SDS011;5671;47.936;8.716;2022-12-10T04:48:02;24.63;;;16.43;;
11228;SDS011;5671;47.936;8.716;2022-12-10T04:50:29;26.03;;;17.00;;
11228;SDS011;5671;47.936;8.716;2022-12-10T04:52:56;24.27;;;17.40;;
11228;SDS011;5671;47.936;8.716;2022-12-10T04:55:24;26.73;;;17.20;;
11228;SDS011;5671;47.936;8.716;2022-12-10T04:57:51;24.15;;;16.10;;
11228;SDS011;5671;47.936;8.716;2022-12-10T05:00:18;26.05;;;17.98;;
11228;SDS011;5671;47.936;8.716;2022-12-10T05:02:47;25.77;;;17.80;;
11228;SDS011;5671;47.936;8.716;2022-12-10T05:05:14;24.60;;;16.10;;
11228;SDS011;5671;47.936;8.716;2022-12-10T05:07:41;25.88;;;16.77;;
11228;SDS011;5671;47.936;8.716;2022-12-10T05:10:08;22.60;;;16.13;;
11228;SDS011;5671;47.936;8.716;2022-12-10T05:12:36;28.07;;;17.47;;
11228;SDS011;5671;47.936;8.716;2022-12-10T05:15:04;20.77;;;14.93;;
11228;SDS011;5671;47.936;8.716;2022-12-10T05:17:32;24.20;;;16.27;;
11228;SDS011;5671;47.936;8.716;2022-12-10T05:19:59;26.40;;;16.60;;
11228;SDS011;5671;47.936;8.716;2022-12-10T05:22:26;23.77;;;15.90;;
11228;SDS011;5671;47.936;8.716;2022-12-10T05:25:10;22.63;;;15.73;;
11228;SDS011;5671;47.936;8.716;2022-12-10T05:27:38;21.85;;;16.33;;
11228;SDS011;5671;47.936;8.716;2022-12-10T05:30:06;23.77;;;15.60;;
11228;SDS011;5671;47.936;8.716;2022-12-10T05:32:34;26.63;;;16.23;;
11228;SDS011;5671;47.936;8.716;2022-12-10T05:35:01;27.35;;;16.95;;
11228;SDS011;5671;47.936;8.716;2022-12-10T05:37:28;24.00;;;15.75;;
11228;SDS011;5671;47.936;8.716;2022-12-10T05:39:55;24.50;;;17.20;;
11228;SDS011;5671;47.936;8.716;2022-12-10T05:42:22;22.70;;;16.50;;
11228;SDS011;5671;47.936;8.716;2022-12-10T05:44:50;22.75;;;16.20;;
11228;SDS011;5671;47.936;8.716;2022-12-10T05:47:17;23.83;;;16.13;;
11228;SDS011;5671;47.936;8.716;2022-12-10T05:49:44;23.60;;;16.70;;
11228;SDS011;5671;47.936;8.716;2022-12-10T05:52:12;21.33;;;15.30;;
11228;SDS011;5671;47.936;8.716;2022-12-10T05:54:48;22.87;;;15.87;;
11228;SDS011;5671;47.936;8.716;2022-12-10T05:57:14;22.88;;;16.58;;
11228;SDS011;5671;47.936;8.716;2022-12-10T05:59:42;21.20;;;16.63;;
11228;SDS011;5671;47.936;8.716;2022-12-10T06:02:10;21.60;;;16.43;;
11228;SDS011;5671;47.936;8.716;2022-12-10T06:04:37;22.13;;;16.02;;
11228;SDS011;5671;47.936;8.716;2022-12-10T06:07:04;26.30;;;16.93;;
11228;SDS011;5671;47.936;8.716;2022-12-10T06:09:31;24.57;;;15.97;;
11228;SDS011;5671;47.936;8.716;2022-12-10T06:11:57;26.33;;;17.77;;
11228;SDS011;5671;47.936;8.716;2022-12-10T06:14:24;25.63;;;17.53;;
11228;SDS011;5671;47.936;8.716;2022-12-10T06:16:51;26.13;;;15.57;;
11228;SDS011;5671;47.936;8.716;2022-12-10T06:19:19;26.03;;;18.53;;
11228;SDS011;5671;47.936;8.716;2022-12-10T06:21:46;26.67;;;17.33;;
11228;SDS011;5671;47.936;8.716;2022-12-10T06:24:13;21.83;;;15.60;;
11228;SDS011;5671;47.936;8.716;2022-12-10T06:26:40;21.40;;;15.32;;
11228;SDS011;5671;47.936;8.716;2022-12-10T06:29:08;22.20;;;16.73;;
11228;SDS011;5671;47.936;8.716;2022-12-10T06:31:35;21.63;;;15.57;;
11228;SDS011;5671;47.936;8.716;2022-12-10T06:34:02;24.10;;;17.47;;
11228;SDS011;5671;47.936;8.716;2022-12-10T06:36:30;23.73;;;16.50;;
11228;SDS011;5671;47.936;8.716;2022-12-10T06:38:57;27.40;;;16.70;;
11228;SDS011;5671;47.936;8.716;2022-12-10T06:41:24;24.23;;;16.40;;
11228;SDS011;5671;47.936;8.716;2022-12-10T06:43:51;23.50;;;16.17;;
11228;SDS011;5671;47.936;8.716;2022-12-10T06:46:18;20.67;;;15.00;;
11228;SDS011;5671;47.936;8.716;2022-12-10T06:48:46;24.15;;;15.25;;
11228;SDS011;5671;47.936;8.716;2022-12-10T06:51:13;32.40;;;22.57;;
11228;SDS011;5671;47.936;8.716;2022-12-10T06:53:43;19.80;;;14.27;;
11228;SDS011;5671;47.936;8.716;2022-12-10T06:56:12;23.03;;;14.77;;
11228;SDS011;5671;47.936;8.716;2022-12-10T06:58:40;21.83;;;15.13;;
11228;SDS011;5671;47.936;8.716;2022-12-10T07:01:09;20.13;;;14.45;;
11228;SDS011;5671;47.936;8.716;2022-12-10T07:03:38;17.80;;;13.35;;
11228;SDS011;5671;47.936;8.716;2022-12-10T07:06:05;21.53;;;14.03;;
11228;SDS011;5671;47.936;8.716;2022-12-10T07:08:33;17.77;;;13.07;;
11228;SDS011;5671;47.936;8.716;2022-12-10T07:11:07;16.95;;;13.57;;
11228;SDS011;5671;47.936;8.716;2022-12-10T07:13:35;20.13;;;13.45;;
11228;SDS011;5671;47.936;8.716;2022-12-10T07:16:02;19.47;;;14.27;;
11228;SDS011;5671;47.936;8.716;2022-12-10T07:18:29;16.83;;;12.07;;
11228;SDS011;5671;47.936;8.716;2022-12-10T07:20:56;17.00;;;12.33;;
11228;SDS011;5671;47.936;8.716;2022-12-10T07:23:23;18.63;;;13.07;;
11228;SDS011;5671;47.936;8.716;2022-12-10T07:25:50;18.70;;;14.00;;
11228;SDS011;5671;47.936;8.716;2022-12-10T07:28:18;17.92;;;12.98;;
11228;SDS011;5671;47.936;8.716;2022-12-10T07:30:45;16.90;;;12.90;;
11228;SDS011;5671;47.936;8.716;2022-12-10T07:33:12;17.20;;;13.03;;
11228;SDS011;5671;47.936;8.716;2022-12-10T07:35:39;16.30;;;12.97;;
11228;SDS011;5671;47.936;8.716;2022-12-10T07:38:06;17.20;;;12.90;;
11228;SDS011;5671;47.936;8.716;2022-12-10T07:40:33;16.73;;;11.93;;
11228;SDS011;5671;47.936;8.716;2022-12-10T07:43:00;17.83;;;13.57;;
11228;SDS011;5671;47.936;8.716;2022-12-10T07:45:28;17.45;;;12.68;;
11228;SDS011;5671;47.936;8.716;2022-12-10T07:47:55;18.10;;;12.70;;
11228;SDS011;5671;47.936;8.716;2022-12-10T07:50:22;17.80;;;13.88;;
11228;SDS011;5671;47.936;8.716;2022-12-10T07:52:49;21.20;;;13.60;;
11228;SDS011;5671;47.936;8.716;2022-12-10T07:55:16;20.77;;;12.87;;
11228;SDS011;5671;47.936;8.716;2022-12-10T07:57:42;20.57;;;13.87;;
11228;SDS011;5671;47.936;8.716;2022-12-10T08:00:10;17.27;;;13.20;;
11228;SDS011;5671;47.936;8.716;2022-12-10T08:02:39;20.40;;;14.07;;
11228;SDS011;5671;47.936;8.716;2022-12-10T08:05:06;18.20;;;13.70;;
11228;SDS011;5671;47.936;8.716;2022-12-10T08:07:33;16.73;;;12.83;;
11228;SDS011;5671;47.936;8.716;2022-12-10T08:10:00;17.67;;;12.97;;
11228;SDS011;5671;47.936;8.716;2022-12-10T08:12:27;16.43;;;12.80;;
11228;SDS011;5671;47.936;8.716;2022-12-10T08:14:54;24.63;;;20.17;;
11228;SDS011;5671;47.936;8.716;2022-12-10T08:17:21;21.13;;;14.43;;
11228;SDS011;5671;47.936;8.716;2022-12-10T08:19:50;18.37;;;13.73;;
11228;SDS011;5671;47.936;8.716;2022-12-10T08:22:17;15.90;;;12.90;;
11228;SDS011;5671;47.936;8.716;2022-12-10T08:24:44;14.80;;;12.47;;
11228;SDS011;5671;47.936;8.716;2022-12-10T08:27:11;14.00;;;11.43;;
11228;SDS011;5671;47.936;8.716;2022-12-10T08:29:38;14.50;;;11.43;;
11228;SDS011;5671;47.936;8.716;2022-12-10T08:32:05;15.27;;;12.30;;
11228;SDS011;5671;47.936;8.716;2022-12-10T08:34:32;15.63;;;12.67;;
11228;SDS011;5671;47.936;8.716;2022-12-10T08:37:00;12.33;;;10.83;;
11228;SDS011;5671;47.936;8.716;2022-12-10T08:39:27;15.10;;;11.75;;
11228;SDS011;5671;47.936;8.716;2022-12-10T08:41:54;14.93;;;12.90;;
11228;SDS011;5671;47.936;8.716;2022-12-10T08:44:21;14.07;;;11.53;;
11228;SDS011;5671;47.936;8.716;2022-12-10T08:46:48;14.50;;;11.67;;
11228;SDS011;5671;47.936;8.716;2022-12-10T08:49:14;13.25;;;11.05;;
11228;SDS011;5671;47.936;8.716;2022-12-10T08:51:42;13.95;;;11.82;;
11228;SDS011;5671;47.936;8.716;2022-12-10T08:54:10;14.00;;;12.30;;
11228;SDS011;5671;47.936;8.716;2022-12-10T08:56:37;14.30;;;12.80;;
11228;SDS011;5671;47.936;8.716;2022-12-10T08:59:05;14.67;;;12.70;;
11228;SDS011;5671;47.936;8.716;2022-12-10T09:01:32;13.23;;;11.63;;
11228;SDS011;5671;47.936;8.716;2022-12-10T09:03:59;14.57;;;12.13;;
11228;SDS011;5671;47.936;8.716;2022-12-10T09:06:26;13.43;;;11.33;;
11228;SDS011;5671;47.936;8.716;2022-12-10T09:08:53;12.80;;;11.13;;
11228;SDS011;5671;47.936;8.716;2022-12-10T09:11:23;15.02;;;12.05;;
11228;SDS011;5671;47.936;8.716;2022-12-10T09:13:50;12.70;;;11.40;;
11228;SDS011;5671;47.936;8.716;2022-12-10T09:16:17;13.13;;;11.70;;
11228;SDS011;5671;47.936;8.716;2022-12-10T09:18:44;14.20;;;12.33;;
11228;SDS011;5671;47.936;8.716;2022-12-10T09:21:12;18.30;;;14.77;;
11228;SDS011;5671;47.936;8.716;2022-12-10T09:23:40;16.87;;;13.83;;
11228;SDS011;5671;47.936;8.716;2022-12-10T09:26:08;13.33;;;11.93;;
11228;SDS011;5671;47.936;8.716;2022-12-10T09:28:38;14.53;;;11.53;;
11228;SDS011;5671;47.936;8.716;2022-12-10T09:31:06;14.93;;;11.85;;
11228;SDS011;5671;47.936;8.716;2022-12-10T09:33:34;12.90;;;11.30;;
11228;SDS011;5671;47.936;8.716;2022-12-10T09:36:02;14.45;;;11.80;;
11228;SDS011;5671;47.936;8.716;2022-12-10T09:38:30;13.43;;;11.10;;
11228;SDS011;5671;47.936;8.716;2022-12-10T09:40:59;15.50;;;12.27;;
11228;SDS011;5671;47.936;8.716;2022-12-10T09:43:30;33.13;;;20.90;;
11228;SDS011;5671;47.936;8.716;2022-12-10T09:46:12;17.20;;;13.83;;
11228;SDS011;5671;47.936;8.716;2022-12-10T09:48:50;17.43;;;13.43;;
11228;SDS011;5671;47.936;8.716;2022-12-10T09:51:25;15.98;;;12.10;;
11228;SDS011;5671;47.936;8.716;2022-12-10T09:53:57;13.43;;;10.77;;
11228;SDS011;5671;47.936;8.716;2022-12-10T09:56:28;15.07;;;12.77;;
11228;SDS011;5671;47.936;8.716;2022-12-10T09:58:59;15.17;;;12.40;;
11228;SDS011;5671;47.936;8.716;2022-12-10T10:01:29;13.20;;;11.80;;
11228;SDS011;5671;47.936;8.716;2022-12-10T10:03:59;13.13;;;11.13;;
11228;SDS011;5671;47.936;8.716;2022-12-10T10:06:26;16.33;;;11.80;;
11228;SDS011;5671;47.936;8.716;2022-12-10T10:08:54;14.98;;;11.13;;
11228;SDS011;5671;47.936;8.716;2022-12-10T10:11:27;12.27;;;10.90;;
11228;SDS011;5671;47.936;8.716;2022-12-10T10:13:57;14.18;;;12.15;;
11228;SDS011;5671;47.936;8.716;2022-12-10T10:16:28;13.43;;;11.70;;
11228;SDS011;5671;47.936;8.716;2022-12-10T10:18:59;13.40;;;11.80;;
11228;SDS011;5671;47.936;8.716;2022-12-10T10:21:32;13.17;;;11.77;;
11228;SDS011;5671;47.936;8.716;2022-12-10T10:24:01;13.03;;;10.53;;
11228;SDS011;5671;47.936;8.716;2022-12-10T10:26:29;11.52;;;9.80;;
11228;SDS011;5671;47.936;8.716;2022-12-10T10:28:57;11.02;;;9.30;;
11228;SDS011;5671;47.936;8.716;2022-12-10T10:31:28;10.02;;;8.52;;
11228;SDS011;5671;47.936;8.716;2022-12-10T10:33:58;10.87;;;9.60;;
11228;SDS011;5671;47.936;8.716;2022-12-10T10:36:26;10.50;;;8.57;;
11228;SDS011;5671;47.936;8.716;2022-12-10T10:38:55;9.67;;;8.67;;
11228;SDS011;5671;47.936;8.716;2022-12-10T10:41:23;10.80;;;8.60;;
11228;SDS011;5671;47.936;8.716;2022-12-10T10:43:51;9.55;;;8.55;;
11228;SDS011;5671;47.936;8.716;2022-12-10T10:46:26;9.37;;;8.37;;
11228;SDS011;5671;47.936;8.716;2022-12-10T10:48:55;10.20;;;9.17;;
11228;SDS011;5671;47.936;8.716;2022-12-10T10:51:41;11.82;;;9.82;;
11228;SDS011;5671;47.936;8.716;2022-12-10T10:54:10;12.47;;;10.20;;
11228;SDS011;5671;47.936;8.716;2022-12-10T10:56:38;13.55;;;9.45;;
11228;SDS011;5671;47.936;8.716;2022-12-10T10:59:19;10.60;;;8.23;;
11228;SDS011;5671;47.936;8.716;2022-12-10T11:01:57;10.53;;;8.30;;
11228;SDS011;5671;47.936;8.716;2022-12-10T11:04:29;12.55;;;8.68;;
11228;SDS011;5671;47.936;8.716;2022-12-10T11:09:41;10.23;;;8.80;;
11228;SDS011;5671;47.936;8.716;2022-12-10T11:12:20;9.57;;;8.57;;
11228;SDS011;5671;47.936;8.716;2022-12-10T11:15:03;11.00;;;7.90;;
11228;SDS011;5671;47.936;8.716;2022-12-10T11:17:59;9.87;;;8.87;;
11228;SDS011;5671;47.936;8.716;2022-12-10T11:20:28;9.33;;;8.17;;
11228;SDS011;5671;47.936;8.716;2022-12-10T11:22:57;10.48;;;8.15;;
11228;SDS011;5671;47.936;8.716;2022-12-10T11:25:28;9.80;;;8.80;;
11228;SDS011;5671;47.936;8.716;2022-12-10T11:28:06;9.30;;;8.32;;
11228;SDS011;5671;47.936;8.716;2022-12-10T11:30:42;9.25;;;8.25;;
11228;SDS011;5671;47.936;8.716;2022-12-10T11:33:17;9.13;;;8.10;;
11228;SDS011;5671;47.936;8.716;2022-12-10T11:35:50;9.60;;;7.93;;
11228;SDS011;5671;47.936;8.716;2022-12-10T11:38:27;8.88;;;7.75;;
11228;SDS011;5671;47.936;8.716;2022-12-10T11:40:59;9.43;;;7.80;;
11228;SDS011;5671;47.936;8.716;2022-12-10T11:43:42;12.25;;;7.90;;
11228;SDS011;5671;47.936;8.716;2022-12-10T11:46:26;7.72;;;6.43;;
11228;SDS011;5671;47.936;8.716;2022-12-10T11:49:14;8.43;;;6.10;;
11228;SDS011;5671;47.936;8.716;2022-12-10T11:51:50;7.75;;;6.95;;
11228;SDS011;5671;47.936;8.716;2022-12-10T11:54:32;8.25;;;6.75;;
11228;SDS011;5671;47.936;8.716;2022-12-10T11:57:17;6.90;;;6.20;;
11228;SDS011;5671;47.936;8.716;2022-12-10T11:59:55;8.73;;;7.00;;
11228;SDS011;5671;47.936;8.716;2022-12-10T12:02:31;8.27;;;7.38;;
11228;SDS011;5671;47.936;8.716;2022-12-10T12:05:22;8.95;;;7.10;;
11228;SDS011;5671;47.936;8.716;2022-12-10T12:07:58;8.07;;;7.27;;
11228;SDS011;5671;47.936;8.716;2022-12-10T12:10:46;7.87;;;7.07;;
11228;SDS011;5671;47.936;8.716;2022-12-10T12:13:24;7.97;;;7.00;;
11228;SDS011;5671;47.936;8.716;2022-12-10T12:15:54;10.03;;;7.07;;
11228;SDS011;5671;47.936;8.716;2022-12-10T12:18:27;8.93;;;7.43;;
11228;SDS011;5671;47.936;8.716;2022-12-10T12:21:01;8.98;;;7.20;;
11228;SDS011;5671;47.936;8.716;2022-12-10T12:23:33;7.65;;;6.85;;
11228;SDS011;5671;47.936;8.716;2022-12-10T12:26:08;7.93;;;6.83;;
11228;SDS011;5671;47.936;8.716;2022-12-10T12:28:41;8.63;;;7.43;;
11228;SDS011;5671;47.936;8.716;2022-12-10T12:31:14;8.60;;;7.70;;
11228;SDS011;5671;47.936;8.716;2022-12-10T12:33:45;8.47;;;7.57;;
11228;SDS011;5671;47.936;8.716;2022-12-10T12:36:19;7.87;;;7.00;;
11228;SDS011;5671;47.936;8.716;2022-12-10T12:38:50;8.07;;;6.93;;
11228;SDS011;5671;47.936;8.716;2022-12-10T12:41:25;7.53;;;6.70;;
11228;SDS011;5671;47.936;8.716;2022-12-10T12:43:58;6.80;;;5.67;;
11228;SDS011;5671;47.936;8.716;2022-12-10T12:46:32;6.30;;;5.53;;
11228;SDS011;5671;47.936;8.716;2022-12-10T12:49:04;8.82;;;6.55;;
11228;SDS011;5671;47.936;8.716;2022-12-10T12:51:42;7.27;;;6.37;;
11228;SDS011;5671;47.936;8.716;2022-12-10T12:54:14;7.17;;;6.07;;
11228;SDS011;5671;47.936;8.716;2022-12-10T12:56:47;7.47;;;6.75;;
11228;SDS011;5671;47.936;8.716;2022-12-10T12:59:26;8.07;;;6.78;;
11228;SDS011;5671;47.936;8.716;2022-12-10T13:02:05;8.57;;;7.60;;
11228;SDS011;5671;47.936;8.716;2022-12-10T13:04:42;7.83;;;6.77;;
11228;SDS011;5671;47.936;8.716;2022-12-10T13:10:17;8.05;;;7.13;;
11228;SDS011;5671;47.936;8.716;2022-12-10T13:15:49;8.23;;;7.38;;
11228;SDS011;5671;47.936;8.716;2022-12-10T13:18:19;8.93;;;7.28;;
11228;SDS011;5671;47.936;8.716;2022-12-10T13:21:16;9.30;;;7.87;;
11228;SDS011;5671;47.936;8.716;2022-12-10T13:24:04;9.27;;;8.05;;
11228;SDS011;5671;47.936;8.716;2022-12-10T13:26:34;11.03;;;9.33;;
11228;SDS011;5671;47.936;8.716;2022-12-10T13:29:11;12.93;;;11.23;;
11228;SDS011;5671;47.936;8.716;2022-12-10T13:31:55;10.40;;;9.30;;
11228;SDS011;5671;47.936;8.716;2022-12-10T13:34:31;12.20;;;10.90;;
11228;SDS011;5671;47.936;8.716;2022-12-10T13:37:04;12.07;;;10.87;;
11228;SDS011;5671;47.936;8.716;2022-12-10T13:39:59;17.03;;;15.30;;
11228;SDS011;5671;47.936;8.716;2022-12-10T13:42:30;13.80;;;12.30;;
11228;SDS011;5671;47.936;8.716;2022-12-10T13:45:24;13.07;;;10.77;;
11228;SDS011;5671;47.936;8.716;2022-12-10T13:47:54;11.75;;;10.57;;
11228;SDS011;5671;47.936;8.716;2022-12-10T13:50:42;11.70;;;10.47;;
11228;SDS011;5671;47.936;8.716;2022-12-10T13:53:14;10.43;;;9.40;;
11228;SDS011;5671;47.936;8.716;2022-12-10T13:55:54;11.57;;;10.47;;
11228;SDS011;5671;47.936;8.716;2022-12-10T13:58:33;10.90;;;9.80;;
11228;SDS011;5671;47.936;8.716;2022-12-10T14:01:11;11.30;;;10.13;;
11228;SDS011;5671;47.936;8.716;2022-12-10T14:03:48;14.60;;;13.00;;
11228;SDS011;5671;47.936;8.716;2022-12-10T14:06:27;20.30;;;18.40;;
11228;SDS011;5671;47.936;8.716;2022-12-10T14:09:02;15.00;;;13.60;;
11228;SDS011;5671;47.936;8.716;2022-12-10T14:11:34;11.27;;;9.90;;
11228;SDS011;5671;47.936;8.716;2022-12-10T14:14:03;13.63;;;12.25;;
11228;SDS011;5671;47.936;8.716;2022-12-10T14:16:32;14.88;;;13.38;;
11228;SDS011;5671;47.936;8.716;2022-12-10T14:19:02;12.53;;;11.30;;
11228;SDS011;5671;47.936;8.716;2022-12-10T14:21:32;22.03;;;19.73;;
11228;SDS011;5671;47.936;8.716;2022-12-10T14:24:01;24.23;;;21.60;;
11228;SDS011;5671;47.936;8.716;2022-12-10T14:26:29;13.20;;;11.80;;
11228;SDS011;5671;47.936;8.716;2022-12-10T14:29:00;11.93;;;10.73;;
11228;SDS011;5671;47.936;8.716;2022-12-10T14:31:28;11.60;;;10.40;;
11228;SDS011;5671;47.936;8.716;2022-12-10T14:33:59;10.70;;;9.60;;
11228;SDS011;5671;47.936;8.716;2022-12-10T14:36:28;9.82;;;8.82;;
11228;SDS011;5671;47.936;8.716;2022-12-10T14:38:58;13.32;;;12.02;;
11228;SDS011;5671;47.936;8.716;2022-12-10T14:41:26;10.80;;;9.70;;
11228;SDS011;5671;47.936;8.716;2022-12-10T14:43:55;9.53;;;8.33;;
11228;SDS011;5671;47.936;8.716;2022-12-10T14:46:29;10.50;;;9.40;;
11228;SDS011;5671;47.936;8.716;2022-12-10T14:48:57;10.40;;;9.35;;
11228;SDS011;5671;47.936;8.716;2022-12-10T14:51:26;9.57;;;8.68;;
11228;SDS011;5671;47.936;8.716;2022-12-10T14:53:58;9.50;;;8.60;;
11228;SDS011;5671;47.936;8.716;2022-12-10T14:56:26;9.40;;;8.40;;
11228;SDS011;5671;47.936;8.716;2022-12-10T14:58:59;8.90;;;8.00;;
11228;SDS011;5671;47.936;8.716;2022-12-10T15:01:34;9.47;;;8.57;;
11228;SDS011;5671;47.936;8.716;2022-12-10T15:04:06;10.03;;;8.70;;
11228;SDS011;5671;47.936;8.716;2022-12-10T15:06:39;9.20;;;8.30;;
11228;SDS011;5671;47.936;8.716;2022-12-10T15:09:10;11.50;;;10.30;;
11228;SDS011;5671;47.936;8.716;2022-12-10T15:11:41;10.82;;;9.48;;
11228;SDS011;5671;47.936;8.716;2022-12-10T15:14:14;11.13;;;10.02;;
11228;SDS011;5671;47.936;8.716;2022-12-10T15:16:44;11.52;;;10.43;;